createdAt,value
2018-10-03T00:01:36.739Z,96193.48
2018-10-03T00:04:06.078Z,96187.56
2018-10-03T00:06:35.428Z,96184.78
2018-10-03T00:09:06.183Z,96181.23
2018-10-03T00:11:35.514Z,96192.11
2018-10-03T00:14:05.159Z,96196.75
2018-10-03T00:16:34.523Z,96196.53
2018-10-03T00:19:04.147Z,96196.53
2018-10-03T00:21:33.489Z,96187.70
2018-10-03T00:24:03.081Z,96183.97
2018-10-03T00:26:32.454Z,96181.34
2018-10-03T00:29:02.072Z,96192.22
2018-10-03T00:31:31.526Z,96190.94
2018-10-03T00:34:00.964Z,96194.52
2018-10-03T00:36:30.546Z,96200.11
2018-10-03T00:39:00.201Z,96198.08
2018-10-03T00:41:30.158Z,96197.70
2018-10-03T00:43:59.663Z,96184.34
2018-10-03T00:46:29.453Z,96199.22
2018-10-03T00:48:59.261Z,96176.19
2018-10-03T00:51:28.796Z,96184.28
2018-10-03T00:53:58.501Z,96186.95
2018-10-03T00:56:28.374Z,96191.59
2018-10-03T00:58:57.902Z,96194.59
2018-10-03T01:01:27.617Z,96187.44
2018-10-03T01:03:57.722Z,96187.96
2018-10-03T01:06:27.439Z,96185.56
2018-10-03T01:08:57.201Z,96174.17
2018-10-03T01:11:27.620Z,96181.91
2018-10-03T01:13:57.627Z,96189.73
2018-10-03T01:16:28.070Z,96172.94
2018-10-03T01:19:04.118Z,96173.22
2018-10-03T01:21:33.462Z,96171.03
2018-10-03T01:24:02.806Z,96181.47
2018-10-03T01:26:32.194Z,96171.63
2018-10-03T01:29:01.642Z,96172.97
2018-10-03T01:31:31.021Z,96180.52
2018-10-03T01:34:00.587Z,96182.62
2018-10-03T01:36:30.208Z,96185.92
2018-10-03T01:38:59.684Z,96187.26
2018-10-03T01:41:29.138Z,96185.10
2018-10-03T01:43:58.610Z,96192.66
2018-10-03T01:46:28.229Z,96195.41
2018-10-03T01:48:57.893Z,96191.02
2018-10-03T01:51:27.581Z,96182.92
2018-10-03T01:53:57.205Z,96187.39
2018-10-03T01:56:26.912Z,96194.08
2018-10-03T01:58:56.993Z,96195.41
2018-10-03T02:01:26.884Z,96195.80
2018-10-03T02:03:56.679Z,96192.47
2018-10-03T02:06:26.400Z,96207.55
2018-10-03T02:08:56.328Z,96197.70
2018-10-03T02:11:26.518Z,96199.34
2018-10-03T02:13:56.944Z,96194.00
2018-10-03T02:16:26.763Z,96203.54
2018-10-03T02:18:56.249Z,96208.25
2018-10-03T02:21:25.749Z,96205.34
2018-10-03T02:23:55.494Z,96202.52
2018-10-03T02:26:25.133Z,96203.61
2018-10-03T02:28:54.857Z,96207.34
2018-10-03T02:31:25.010Z,96209.14
2018-10-03T02:33:54.541Z,96210.59
2018-10-03T02:36:24.281Z,96205.88
2018-10-03T02:38:53.972Z,96205.20
2018-10-03T02:41:23.871Z,96196.09
2018-10-03T02:43:54.117Z,96212.39
2018-10-03T02:46:24.497Z,96197.81
2018-10-03T02:48:54.662Z,96210.23
2018-10-03T02:51:24.547Z,96193.58
2018-10-03T02:53:54.677Z,96203.74
2018-10-03T02:56:24.499Z,96199.10
2018-10-03T02:58:54.589Z,96201.31
2018-10-03T03:01:24.541Z,96192.08
2018-10-03T03:03:54.473Z,96203.11
2018-10-03T03:06:24.250Z,96204.57
2018-10-03T03:08:54.069Z,96207.78
2018-10-03T03:11:23.961Z,96205.51
2018-10-03T03:13:53.942Z,96221.41
2018-10-03T03:16:23.814Z,96221.34
2018-10-03T03:18:53.499Z,96216.19
2018-10-03T03:21:23.335Z,96212.13
2018-10-03T03:23:53.065Z,96206.35
2018-10-03T03:26:22.895Z,96215.31
2018-10-03T03:28:52.694Z,96202.70
2018-10-03T03:31:22.376Z,96222.04
2018-10-03T03:33:51.910Z,96226.05
2018-10-03T03:36:21.418Z,96229.87
2018-10-03T03:38:50.845Z,96214.60
2018-10-03T03:41:20.301Z,96216.15
2018-10-03T03:43:49.746Z,96225.86
2018-10-03T03:46:19.162Z,96227.08
2018-10-03T03:48:48.549Z,96215.45
2018-10-03T03:51:17.906Z,96219.97
2018-10-03T03:53:47.208Z,96219.06
2018-10-03T03:56:16.590Z,96221.98
2018-10-03T03:58:45.905Z,96224.98
2018-10-03T04:01:15.296Z,96226.70
2018-10-03T04:03:44.962Z,96226.44
2018-10-03T04:06:14.284Z,96234.97
2018-10-03T04:08:43.619Z,96237.33
2018-10-03T04:11:12.999Z,96241.31
2018-10-03T04:13:42.412Z,96244.50
2018-10-03T04:16:11.726Z,96246.11
2018-10-03T04:18:41.170Z,96245.13
2018-10-03T04:21:10.503Z,96241.97
2018-10-03T04:23:39.882Z,96240.64
2018-10-03T04:26:09.578Z,96240.45
2018-10-03T04:28:38.947Z,96235.59
2018-10-03T04:31:08.262Z,96241.52
2018-10-03T04:33:37.593Z,96243.31
2018-10-03T04:36:06.932Z,96254.30
2018-10-03T04:38:36.231Z,96245.41
2018-10-03T04:41:05.530Z,96248.14
2018-10-03T04:43:34.817Z,96251.90
2018-10-03T04:46:04.182Z,96246.34
2018-10-03T04:48:33.495Z,96251.14
2018-10-03T04:51:02.939Z,96249.34
2018-10-03T04:53:32.386Z,96245.39
2018-10-03T04:56:01.863Z,96251.06
2018-10-03T04:58:31.397Z,96249.41
2018-10-03T05:01:00.758Z,96243.18
2018-10-03T05:03:30.302Z,96246.98
2018-10-03T05:05:59.694Z,96242.78
2018-10-03T05:08:29.297Z,96238.96
2018-10-03T05:10:58.761Z,96241.84
2018-10-03T05:13:28.225Z,96237.56
2018-10-03T05:15:58.422Z,96234.84
2018-10-03T05:18:28.076Z,96236.45
2018-10-03T05:20:57.681Z,96231.34
2018-10-03T05:23:27.318Z,96229.95
2018-10-03T05:25:56.835Z,96231.02
2018-10-03T05:28:26.804Z,96230.31
2018-10-03T05:30:56.464Z,96229.19
2018-10-03T05:33:26.139Z,96236.11
2018-10-03T05:35:55.968Z,96239.12
2018-10-03T05:38:26.661Z,96242.42
2018-10-03T05:40:56.450Z,96241.91
2018-10-03T05:43:26.233Z,96236.31
2018-10-03T05:45:56.063Z,96234.41
2018-10-03T05:48:25.642Z,96238.41
2018-10-03T05:50:55.291Z,96242.97
2018-10-03T05:53:25.091Z,96256.33
2018-10-03T05:55:54.824Z,96255.38
2018-10-03T05:58:24.376Z,96256.72
2018-10-03T06:00:54.019Z,96259.45
2018-10-03T06:03:23.581Z,96263.27
2018-10-03T06:05:53.323Z,96258.70
2018-10-03T06:08:23.572Z,96268.94
2018-10-03T06:10:53.650Z,96262.77
2018-10-03T06:13:23.395Z,96266.37
2018-10-03T06:15:53.442Z,96270.33
2018-10-03T06:18:23.714Z,96267.14
2018-10-03T06:20:53.396Z,96279.55
2018-10-03T06:23:23.618Z,96273.02
2018-10-03T06:25:53.229Z,96269.25
2018-10-03T06:28:23.762Z,96277.21
2018-10-03T06:30:53.573Z,96281.28
2018-10-03T06:33:23.675Z,96280.13
2018-10-03T06:35:53.547Z,96290.55
2018-10-03T06:38:23.325Z,96294.89
2018-10-03T06:40:53.483Z,96304.39
2018-10-03T06:43:23.202Z,96308.89
2018-10-03T06:45:52.969Z,96313.72
2018-10-03T06:48:22.604Z,96312.71
2018-10-03T06:50:52.413Z,96306.14
2018-10-03T06:53:22.025Z,96308.92
2018-10-03T06:55:51.604Z,96319.45
2018-10-03T06:58:21.017Z,96300.92
2018-10-03T07:00:50.537Z,96299.86
2018-10-03T07:03:20.202Z,96292.22
2018-10-03T07:05:49.619Z,96301.14
2018-10-03T07:08:19.027Z,96302.80
2018-10-03T07:10:48.356Z,96303.67
2018-10-03T07:13:17.702Z,96311.26
2018-10-03T07:15:47.229Z,96308.39
2018-10-03T07:18:16.754Z,96309.02
2018-10-03T07:20:46.199Z,96310.92
2018-10-03T07:23:15.502Z,96323.39
2018-10-03T07:25:45.451Z,96319.16
2018-10-03T07:28:14.844Z,96326.74
2018-10-03T07:30:44.365Z,96325.08
2018-10-03T07:33:13.653Z,96323.05
2018-10-03T07:35:43.022Z,96326.79
2018-10-03T07:38:12.462Z,96326.59
2018-10-03T07:40:41.825Z,96325.58
2018-10-03T07:43:11.134Z,96336.38
2018-10-03T07:45:40.544Z,96334.69
2018-10-03T07:48:09.962Z,96348.17
2018-10-03T07:50:39.328Z,96342.75
2018-10-03T07:53:08.738Z,96344.88
2018-10-03T07:55:38.164Z,96350.53
2018-10-03T07:58:07.644Z,96354.60
2018-10-03T08:00:36.961Z,96352.56
2018-10-03T08:03:12.378Z,96358.13
2018-10-03T08:05:41.801Z,96352.30
2018-10-03T08:08:11.313Z,96353.12
2018-10-03T08:10:41.210Z,96352.05
2018-10-03T08:13:10.844Z,96359.73
2018-10-03T08:15:40.318Z,96362.36
2018-10-03T08:18:09.629Z,96365.02
2018-10-03T08:20:38.934Z,96367.69
2018-10-03T08:23:08.629Z,96364.83
2018-10-03T08:25:37.985Z,96370.09
2018-10-03T08:28:07.732Z,96373.06
2018-10-03T08:30:37.228Z,96367.41
2018-10-03T08:33:06.674Z,96369.94
2018-10-03T08:35:35.986Z,96372.86
2018-10-03T08:38:05.677Z,96369.25
2018-10-03T08:40:34.974Z,96379.09
2018-10-03T08:43:05.345Z,96377.29
2018-10-03T08:45:34.805Z,96374.92
2018-10-03T08:48:04.201Z,96372.07
2018-10-03T08:50:33.652Z,96371.09
2018-10-03T08:53:03.027Z,96379.39
2018-10-03T08:55:32.417Z,96371.28
2018-10-03T08:58:01.960Z,96368.03
2018-10-03T09:00:31.261Z,96364.34
2018-10-03T09:03:00.897Z,96361.62
2018-10-03T09:05:30.390Z,96351.45
2018-10-03T09:08:11.630Z,96366.34
2018-10-03T09:10:42.756Z,96363.08
2018-10-03T09:13:12.753Z,96368.95
2018-10-03T09:15:42.259Z,96365.58
2018-10-03T09:18:11.661Z,96355.05
2018-10-03T09:20:40.970Z,96362.19
2018-10-03T09:23:10.389Z,96369.75
2018-10-03T09:25:39.732Z,96370.73
2018-10-03T09:28:09.288Z,96374.44
2018-10-03T09:30:38.576Z,96376.80
2018-10-03T09:33:08.032Z,96388.30
2018-10-03T09:35:37.431Z,96384.91
2018-10-03T09:38:06.846Z,96394.27
2018-10-03T09:40:36.475Z,96389.35
2018-10-03T09:43:05.799Z,96402.09
2018-10-03T09:45:35.779Z,96402.66
2018-10-03T09:48:05.272Z,96414.17
2018-10-03T09:50:34.782Z,96398.73
2018-10-03T09:53:04.073Z,96406.23
2018-10-03T09:55:33.487Z,96403.94
2018-10-03T09:58:02.858Z,96404.02
2018-10-03T10:00:37.546Z,96410.91
2018-10-03T10:03:06.957Z,96408.19
2018-10-03T10:05:36.330Z,96406.75
2018-10-03T10:08:05.773Z,96404.94
2018-10-03T10:10:35.075Z,96406.22
2018-10-03T10:13:04.504Z,96414.62
2018-10-03T10:15:33.965Z,96419.52
2018-10-03T10:18:03.289Z,96411.42
2018-10-03T10:20:32.617Z,96406.88
2018-10-03T10:23:02.035Z,96408.83
2018-10-03T10:25:31.425Z,96400.05
2018-10-03T10:28:01.396Z,96399.92
2018-10-03T10:30:31.013Z,96408.91
2018-10-03T10:33:00.681Z,96399.12
2018-10-03T10:35:30.188Z,96402.34
2018-10-03T10:37:59.751Z,96397.67
2018-10-03T10:40:29.720Z,96393.64
2018-10-03T10:42:59.523Z,96392.30
2018-10-03T10:45:29.998Z,96395.33
2018-10-03T10:47:59.689Z,96397.06
2018-10-03T10:50:29.664Z,96392.59
2018-10-03T10:52:59.008Z,96393.97
2018-10-03T10:55:28.620Z,96393.37
2018-10-03T10:57:58.528Z,96397.66
2018-10-03T11:00:28.274Z,96407.73
2018-10-03T11:02:58.848Z,96400.42
2018-10-03T11:05:28.341Z,96398.81
2018-10-03T11:07:57.742Z,96397.99
2018-10-03T11:10:28.514Z,96411.03
2018-10-03T11:12:58.000Z,96394.81
2018-10-03T11:15:27.456Z,96390.19
2018-10-03T11:17:56.770Z,96385.98
2018-10-03T11:20:26.291Z,96388.14
2018-10-03T11:22:55.701Z,96396.07
2018-10-03T11:25:25.216Z,96398.02
2018-10-03T11:27:54.718Z,96388.53
2018-10-03T11:30:24.226Z,96387.23
2018-10-03T11:32:53.572Z,96392.30
2018-10-03T11:35:22.972Z,96392.64
2018-10-03T11:37:52.409Z,96390.70
2018-10-03T11:40:21.861Z,96392.78
2018-10-03T11:42:51.285Z,96387.23
2018-10-03T11:45:20.607Z,96389.36
2018-10-03T11:47:50.095Z,96393.16
2018-10-03T11:50:19.503Z,96388.10
2018-10-03T11:52:49.051Z,96383.04
2018-10-03T11:55:18.372Z,96389.22
2018-10-03T11:57:48.166Z,96390.56
2018-10-03T12:00:17.694Z,96397.80
2018-10-03T12:02:47.144Z,96391.24
2018-10-03T12:05:16.625Z,96398.40
2018-10-03T12:07:46.871Z,96387.66
2018-10-03T12:10:16.226Z,96399.52
2018-10-03T12:12:45.917Z,96396.80
2018-10-03T12:15:16.482Z,96402.20
2018-10-03T12:17:46.086Z,96405.48
2018-10-03T12:20:15.577Z,96398.17
2018-10-03T12:22:45.141Z,96394.59
2018-10-03T12:25:14.781Z,96414.27
2018-10-03T12:27:44.203Z,96414.11
2018-10-03T12:30:13.667Z,96405.33
2018-10-03T12:32:43.402Z,96398.91
2018-10-03T12:35:13.236Z,96412.07
2018-10-03T12:37:42.825Z,96413.41
2018-10-03T12:40:12.654Z,96413.33
2018-10-03T12:42:42.260Z,96415.84
2018-10-03T12:45:12.773Z,96409.17
2018-10-03T12:47:42.429Z,96411.47
2018-10-03T12:50:12.059Z,96414.67
2018-10-03T12:52:41.513Z,96424.06
2018-10-03T12:55:11.930Z,96419.59
2018-10-03T12:57:41.414Z,96425.52
2018-10-03T13:00:10.976Z,96427.13
2018-10-03T13:02:40.587Z,96420.55
2018-10-03T13:05:10.217Z,96415.44
2018-10-03T13:07:39.913Z,96411.20
2018-10-03T13:10:09.430Z,96415.03
2018-10-03T13:12:39.092Z,96408.30
2018-10-03T13:15:08.709Z,96412.53
2018-10-03T13:17:38.288Z,96413.20
2018-10-03T13:20:08.545Z,96424.45
2018-10-03T13:22:38.869Z,96416.33
2018-10-03T13:25:09.071Z,96414.29
2018-10-03T13:27:39.083Z,96402.27
2018-10-03T13:30:08.973Z,96414.80
2018-10-03T13:32:38.682Z,96415.08
2018-10-03T13:35:08.649Z,96412.36
2018-10-03T13:37:38.340Z,96411.77
2018-10-03T13:40:08.039Z,96422.23
2018-10-03T13:42:37.827Z,96419.52
2018-10-03T13:45:08.023Z,96418.15
2018-10-03T13:47:37.839Z,96420.02
2018-10-03T13:50:08.003Z,96420.48
2018-10-03T13:52:37.526Z,96426.06
2018-10-03T13:55:07.318Z,96418.44
2018-10-03T13:57:37.440Z,96425.61
2018-10-03T14:00:08.249Z,96422.87
2018-10-03T14:02:37.932Z,96426.91
2018-10-03T14:05:07.718Z,96425.33
2018-10-03T14:07:38.171Z,96431.66
2018-10-03T14:10:07.882Z,96437.38
2018-10-03T14:12:37.432Z,96433.11
2018-10-03T14:15:07.127Z,96439.39
2018-10-03T14:17:36.930Z,96443.95
2018-10-03T14:20:06.939Z,96444.27
2018-10-03T14:22:37.720Z,96441.30
2018-10-03T14:25:08.164Z,96441.81
2018-10-03T14:27:37.894Z,96446.95
2018-10-03T14:30:07.862Z,96438.83
2018-10-03T14:32:38.051Z,96437.94
2018-10-03T14:35:07.932Z,96431.30
2018-10-03T14:37:37.635Z,96432.79
2018-10-03T14:40:07.162Z,96438.61
2018-10-03T14:42:36.904Z,96447.00
2018-10-03T14:45:07.408Z,96448.64
2018-10-03T14:47:37.330Z,96450.63
2018-10-03T14:50:07.944Z,96452.54
2018-10-03T14:52:37.480Z,96458.59
2018-10-03T14:55:07.765Z,96459.05
2018-10-03T14:57:37.737Z,96459.27
2018-10-03T15:00:08.218Z,96458.45
2018-10-03T15:02:37.873Z,96462.73
2018-10-03T15:05:08.453Z,96461.88
2018-10-03T15:07:38.389Z,96454.31
2018-10-03T15:10:08.394Z,96459.20
2018-10-03T15:12:38.171Z,96452.19
2018-10-03T15:15:08.845Z,96447.70
2018-10-03T15:17:38.470Z,96444.12
2018-10-03T15:20:08.793Z,96449.72
2018-10-03T15:22:39.007Z,96456.58
2018-10-03T15:25:10.272Z,96461.39
2018-10-03T15:27:40.698Z,96463.82
2018-10-03T15:30:10.517Z,96468.67
2018-10-03T15:32:40.246Z,96465.69
2018-10-03T15:35:09.915Z,96463.86
2018-10-03T15:37:40.017Z,96464.37
2018-10-03T15:40:09.779Z,96467.59
2018-10-03T15:42:39.611Z,96462.81
2018-10-03T15:45:11.047Z,96467.47
2018-10-03T15:47:41.548Z,96470.71
2018-10-03T15:50:11.732Z,96468.14
2018-10-03T15:52:41.451Z,96472.06
2018-10-03T15:55:11.224Z,96481.39
2018-10-03T15:57:40.982Z,96485.05
2018-10-03T16:00:10.817Z,96480.20
2018-10-03T16:02:42.083Z,96480.12
2018-10-03T16:05:12.890Z,96482.20
2018-10-03T16:07:42.955Z,96486.41
2018-10-03T16:10:16.184Z,96479.48
2018-10-03T16:12:45.829Z,96485.94
2018-10-03T16:15:15.733Z,96491.83
2018-10-03T16:17:45.954Z,96490.73
2018-10-03T16:20:15.886Z,96499.23
2018-10-03T16:22:47.322Z,96511.36
2018-10-03T16:25:16.796Z,96504.30
2018-10-03T16:27:47.423Z,96508.37
2018-10-03T16:30:17.767Z,96508.42
2018-10-03T16:35:26.197Z,96516.42
2018-10-03T16:37:55.377Z,96526.86
2018-10-03T16:40:24.624Z,96531.11
2018-10-03T16:42:53.829Z,96524.69
2018-10-03T16:45:23.016Z,96527.90
2018-10-03T16:47:52.575Z,96540.76
2018-10-03T16:50:21.771Z,96542.88
2018-10-03T16:52:51.118Z,96541.84
2018-10-03T16:55:20.295Z,96542.37
2018-10-03T16:57:49.459Z,96547.17
2018-10-03T17:00:18.672Z,96547.38
2018-10-03T17:02:47.840Z,96539.38
2018-10-03T17:05:17.116Z,96549.81
2018-10-03T17:07:46.373Z,96543.36
2018-10-03T17:10:15.549Z,96541.66
2018-10-03T17:12:44.740Z,96545.90
2018-10-03T17:15:14.093Z,96544.77
2018-10-03T17:17:43.205Z,96544.16
2018-10-03T17:20:12.471Z,96551.95
2018-10-03T17:22:41.819Z,96556.28
2018-10-03T17:25:11.115Z,96556.70
2018-10-03T17:27:40.273Z,96560.33
2018-10-03T17:30:09.468Z,96558.06
2018-10-03T17:32:38.829Z,96560.08
2018-10-03T17:35:08.067Z,96564.51
2018-10-03T17:37:37.416Z,96566.35
2018-10-03T17:40:06.999Z,96565.23
2018-10-03T17:42:36.377Z,96563.32
2018-10-03T17:45:05.734Z,96570.08
2018-10-03T17:47:34.918Z,96575.95
2018-10-03T17:50:04.105Z,96581.57
2018-10-03T17:52:33.233Z,96583.48
2018-10-03T17:55:02.426Z,96582.91
2018-10-03T17:57:31.581Z,96577.23
2018-10-03T18:00:00.759Z,96581.77
2018-10-03T18:02:29.952Z,96582.59
2018-10-03T18:04:59.238Z,96588.92
2018-10-03T18:07:28.458Z,96597.69
2018-10-03T18:09:57.625Z,96598.98
2018-10-03T18:12:26.965Z,96602.37
2018-10-03T18:14:56.188Z,96604.07
2018-10-03T18:17:25.409Z,96607.73
2018-10-03T18:19:54.569Z,96605.88
2018-10-03T18:22:24.767Z,96606.14
2018-10-03T18:24:53.940Z,96608.05
2018-10-03T18:27:29.654Z,96609.50
2018-10-03T18:29:58.910Z,96613.75
2018-10-03T18:32:28.304Z,96614.12
2018-10-03T18:34:57.782Z,96616.69
2018-10-03T18:37:27.318Z,96618.37
2018-10-03T18:39:56.565Z,96613.40
2018-10-03T18:42:26.000Z,96622.91
2018-10-03T18:44:56.768Z,96628.14
2018-10-03T18:47:26.372Z,96626.80
2018-10-03T18:49:55.578Z,96628.66
2018-10-03T18:52:25.088Z,96635.50
2018-10-03T18:54:54.358Z,96638.72
2018-10-03T18:57:23.864Z,96633.25
2018-10-03T18:59:53.387Z,96630.65
2018-10-03T19:02:22.625Z,96633.13
2018-10-03T19:04:52.705Z,96641.05
2018-10-03T19:07:22.297Z,96634.10
2018-10-03T19:09:51.609Z,96636.27
2018-10-03T19:12:21.209Z,96635.44
2018-10-03T19:14:50.753Z,96635.59
2018-10-03T19:17:20.043Z,96638.86
2018-10-03T19:19:50.097Z,96632.37
2018-10-03T19:22:19.953Z,96634.53
2018-10-03T19:24:49.100Z,96637.09
2018-10-03T19:27:18.738Z,96629.61
2018-10-03T19:29:47.955Z,96628.78
2018-10-03T19:32:17.207Z,96633.90
2018-10-03T19:34:46.544Z,96642.18
2018-10-03T19:37:15.809Z,96642.70
2018-10-03T19:39:45.138Z,96639.37
2018-10-03T19:42:14.520Z,96646.38
2018-10-03T19:44:43.629Z,96637.01
2018-10-03T19:47:13.420Z,96638.22
2018-10-03T19:49:42.713Z,96647.33
2018-10-03T19:52:11.979Z,96655.05
2018-10-03T19:54:41.282Z,96650.91
2018-10-03T19:57:10.646Z,96655.69
2018-10-03T19:59:39.753Z,96655.69
2018-10-03T20:02:09.925Z,96656.27
2018-10-03T20:04:39.299Z,96652.91
2018-10-03T20:07:08.551Z,96651.82
2018-10-03T20:09:37.769Z,96649.08
2018-10-03T20:12:07.445Z,96646.98
2018-10-03T20:14:36.801Z,96649.94
2018-10-03T20:17:06.130Z,96662.53
2018-10-03T20:19:35.553Z,96655.77
2018-10-03T20:22:05.364Z,96653.48
2018-10-03T20:24:34.506Z,96659.39
2018-10-03T20:27:03.781Z,96656.09
2018-10-03T20:29:33.236Z,96659.53
2018-10-03T20:32:02.561Z,96656.00
2018-10-03T20:34:31.763Z,96653.77
2018-10-03T20:37:01.046Z,96662.97
2018-10-03T20:39:30.299Z,96666.46
2018-10-03T20:41:59.437Z,96669.34
2018-10-03T20:44:28.706Z,96666.69
2018-10-03T20:46:58.050Z,96665.66
2018-10-03T20:49:27.219Z,96666.58
2018-10-03T20:51:56.640Z,96667.33
2018-10-03T20:54:26.056Z,96665.14
2018-10-03T20:56:55.253Z,96661.88
2018-10-03T20:59:24.738Z,96661.58
2018-10-03T21:01:54.054Z,96663.22
2018-10-03T21:04:23.286Z,96661.64
2018-10-03T21:06:52.589Z,96659.88
2018-10-03T21:09:21.972Z,96656.69
2018-10-03T21:11:51.210Z,96655.66
2018-10-03T21:14:20.615Z,96663.14
2018-10-03T21:16:49.797Z,96661.13
2018-10-03T21:19:18.998Z,96661.30
2018-10-03T21:21:48.295Z,96664.26
2018-10-03T21:24:17.481Z,96658.62
2018-10-03T21:26:46.645Z,96660.48
2018-10-03T21:29:15.840Z,96655.70
2018-10-03T21:31:45.005Z,96651.05
2018-10-03T21:34:14.191Z,96651.39
2018-10-03T21:36:43.364Z,96648.68
2018-10-03T21:39:12.546Z,96648.24
2018-10-03T21:41:41.744Z,96651.23
2018-10-03T21:44:10.922Z,96650.41
2018-10-03T21:46:40.113Z,96657.34
2018-10-03T21:49:09.357Z,96650.47
2018-10-03T21:51:38.644Z,96649.58
2018-10-03T21:54:07.791Z,96648.24
2018-10-03T21:56:36.946Z,96647.97
2018-10-03T21:59:06.160Z,96654.91
2018-10-03T22:01:35.329Z,96656.76
2018-10-03T22:04:04.481Z,96654.08
2018-10-03T22:06:33.620Z,96654.91
2018-10-03T22:09:03.045Z,96654.91
2018-10-03T22:11:32.193Z,96652.95
2018-10-03T22:14:01.445Z,96651.34
2018-10-03T22:16:30.636Z,96648.33
2018-10-03T22:18:59.826Z,96651.20
2018-10-03T22:21:29.029Z,96651.17
2018-10-03T22:23:58.262Z,96652.38
2018-10-03T22:26:27.418Z,96657.49
2018-10-03T22:28:56.589Z,96656.98
2018-10-03T22:31:25.765Z,96655.39
2018-10-03T22:33:54.929Z,96658.89
2018-10-03T22:36:24.185Z,96654.13
2018-10-03T22:38:54.345Z,96654.88
2018-10-03T22:41:23.553Z,96654.88
2018-10-03T22:43:52.760Z,96656.27
2018-10-03T22:46:21.925Z,96659.11
2018-10-03T22:48:51.125Z,96664.97
2018-10-03T22:51:20.315Z,96662.88
2018-10-03T22:53:49.487Z,96663.88
2018-10-03T22:56:18.771Z,96657.13
2018-10-03T22:58:47.934Z,96658.11
2018-10-03T23:01:17.113Z,96661.03
2018-10-03T23:03:46.352Z,96656.56
2018-10-03T23:06:15.637Z,96660.98
2018-10-03T23:08:44.752Z,96667.16
2018-10-03T23:11:13.896Z,96663.63
2018-10-03T23:13:43.605Z,96671.23
2018-10-03T23:16:12.764Z,96668.56
2018-10-03T23:18:41.944Z,96674.56
2018-10-03T23:21:11.179Z,96673.80
2018-10-03T23:23:40.437Z,96668.20
2018-10-03T23:26:09.635Z,96669.78
2018-10-03T23:28:38.804Z,96670.09
2018-10-03T23:31:07.993Z,96674.56
2018-10-03T23:33:37.206Z,96678.51
2018-10-03T23:36:06.425Z,96679.78
2018-10-03T23:38:35.608Z,96682.80
2018-10-03T23:41:04.765Z,96685.41
2018-10-03T23:43:34.119Z,96691.25
2018-10-03T23:46:03.325Z,96696.30
2018-10-03T23:48:32.529Z,96690.08
2018-10-03T23:51:01.701Z,96702.91
2018-10-03T23:53:30.903Z,96699.38
2018-10-03T23:56:00.043Z,96695.36
2018-10-03T23:58:29.225Z,96701.68
